createdAt,value
2019-01-04T00:01:25.695Z,42.27
2019-01-04T00:03:53.127Z,40.77
2019-01-04T00:06:20.539Z,51.43
2019-01-04T00:08:47.961Z,47.73
2019-01-04T00:11:15.379Z,51.27
2019-01-04T00:13:42.789Z,50.47
2019-01-04T00:16:10.219Z,57.33
2019-01-04T00:18:37.624Z,52.87
2019-01-04T00:21:05.058Z,60.53
2019-01-04T00:23:32.466Z,53.23
2019-01-04T00:25:59.908Z,52.70
2019-01-04T00:28:27.342Z,45.57
2019-01-04T00:30:54.781Z,57.97
2019-01-04T00:33:22.178Z,52.57
2019-01-04T00:35:49.603Z,62.73
2019-01-04T00:38:17.045Z,55.93
2019-01-04T00:40:44.484Z,61.87
2019-01-04T00:43:11.926Z,59.83
2019-01-04T00:45:39.351Z,55.00
2019-01-04T00:48:06.759Z,62.57
2019-01-04T00:50:34.167Z,56.10
2019-01-04T00:53:01.614Z,62.03
2019-01-04T00:55:35.010Z,56.13
2019-01-04T00:58:07.950Z,56.23
2019-01-04T01:00:53.831Z,48.63
2019-01-04T01:03:27.288Z,57.20
2019-01-04T01:06:31.715Z,59.37
2019-01-04T01:09:23.160Z,55.83
2019-01-04T01:12:08.190Z,62.50
2019-01-04T01:14:59.963Z,69.30
2019-01-04T01:17:39.381Z,56.50
2019-01-04T01:20:43.999Z,57.93
2019-01-04T01:23:29.593Z,61.73
2019-01-04T01:26:11.506Z,50.73
2019-01-04T01:28:59.848Z,68.90
2019-01-04T01:31:54.458Z,63.40
2019-01-04T01:34:43.234Z,60.80
2019-01-04T01:37:37.939Z,54.40
2019-01-04T01:40:23.559Z,59.43
2019-01-04T01:43:15.123Z,60.67
2019-01-04T01:45:51.380Z,56.40
2019-01-04T01:48:18.818Z,59.93
2019-01-04T01:50:48.967Z,72.47
2019-01-04T01:53:16.392Z,61.63
2019-01-04T01:55:43.823Z,61.43
2019-01-04T01:58:11.243Z,64.57
2019-01-04T02:00:38.681Z,60.30
2019-01-04T02:03:06.088Z,63.57
2019-01-04T02:05:33.514Z,52.67
2019-01-04T02:08:00.938Z,52.13
2019-01-04T02:10:28.371Z,46.73
2019-01-04T02:12:55.800Z,53.67
2019-01-04T02:15:23.230Z,53.33
2019-01-04T02:17:50.684Z,59.67
2019-01-04T02:20:18.105Z,50.83
2019-01-04T02:22:45.536Z,50.53
2019-01-04T02:25:12.935Z,51.17
2019-01-04T02:27:40.377Z,58.80
2019-01-04T02:30:07.833Z,59.23
2019-01-04T02:32:35.239Z,70.63
2019-01-04T02:35:02.680Z,68.27
2019-01-04T02:37:30.098Z,73.80
2019-01-04T02:39:57.532Z,67.47
2019-01-04T02:42:24.970Z,67.97
2019-01-04T02:44:52.371Z,74.87
2019-01-04T02:47:19.817Z,61.27
2019-01-04T02:49:47.248Z,63.53
2019-01-04T02:52:14.665Z,58.00
2019-01-04T02:54:42.094Z,71.97
2019-01-04T02:57:09.532Z,55.47
2019-01-04T02:59:36.943Z,65.47
2019-01-04T03:02:04.376Z,62.77
2019-01-04T03:04:31.792Z,49.33
2019-01-04T03:06:59.219Z,59.57
2019-01-04T03:09:26.642Z,55.97
2019-01-04T03:11:54.065Z,59.27
2019-01-04T03:14:21.513Z,58.33
2019-01-04T03:16:48.920Z,59.63
2019-01-04T03:19:16.358Z,68.17
2019-01-04T03:21:43.770Z,56.67
2019-01-04T03:24:11.212Z,53.67
2019-01-04T03:26:38.620Z,62.80
2019-01-04T03:29:06.070Z,65.23
2019-01-04T03:31:33.478Z,63.97
2019-01-04T03:34:00.918Z,58.77
2019-01-04T03:36:28.343Z,70.27
2019-01-04T03:38:55.782Z,69.67
2019-01-04T03:41:23.192Z,61.93
2019-01-04T03:43:50.646Z,68.80
2019-01-04T03:46:18.050Z,69.80
2019-01-04T03:48:45.458Z,64.93
2019-01-04T03:51:12.936Z,59.77
2019-01-04T03:53:40.359Z,68.70
2019-01-04T03:56:07.793Z,71.80
2019-01-04T03:58:35.196Z,59.77
2019-01-04T04:01:02.641Z,62.50
2019-01-04T04:03:30.059Z,67.47
2019-01-04T04:05:57.489Z,73.77
2019-01-04T04:08:24.903Z,64.77
2019-01-04T04:10:52.311Z,51.87
2019-01-04T04:13:19.744Z,70.20
2019-01-04T04:15:47.180Z,80.57
2019-01-04T04:18:14.612Z,76.60
2019-01-04T04:20:42.028Z,71.33
2019-01-04T04:23:09.451Z,77.43
2019-01-04T04:25:36.878Z,68.33
2019-01-04T04:28:04.286Z,64.77
2019-01-04T04:30:31.723Z,76.33
2019-01-04T04:32:59.163Z,79.53
2019-01-04T04:35:26.590Z,65.77
2019-01-04T04:37:54.010Z,69.00
2019-01-04T04:40:21.422Z,80.97
2019-01-04T04:42:48.906Z,97.07
2019-01-04T04:45:16.313Z,86.00
2019-01-04T04:47:43.761Z,84.03
2019-01-04T04:50:11.166Z,92.57
2019-01-04T04:52:38.574Z,91.40
2019-01-04T04:55:06.035Z,106.57
2019-01-04T04:57:33.452Z,96.13
2019-01-04T05:00:00.900Z,86.00
2019-01-04T05:02:28.328Z,92.53
2019-01-04T05:04:55.767Z,73.63
2019-01-04T05:07:23.175Z,67.03
2019-01-04T05:09:50.601Z,85.83
2019-01-04T05:12:18.029Z,80.97
2019-01-04T05:14:45.488Z,64.83
2019-01-04T05:17:12.903Z,67.53
2019-01-04T05:19:40.427Z,67.87
2019-01-04T05:22:07.846Z,61.97
2019-01-04T05:24:35.253Z,84.30
2019-01-04T05:27:02.692Z,107.87
2019-01-04T05:29:30.110Z,86.83
2019-01-04T05:31:57.574Z,77.37
2019-01-04T05:34:25.021Z,65.90
2019-01-04T05:36:52.425Z,78.53
2019-01-04T05:39:19.842Z,61.20
2019-01-04T05:41:47.285Z,65.73
2019-01-04T05:44:14.704Z,92.43
2019-01-04T05:46:42.146Z,81.60
2019-01-04T05:49:09.551Z,56.87
2019-01-04T05:51:36.961Z,73.80
2019-01-04T05:54:04.403Z,70.43
2019-01-04T05:56:31.873Z,91.83
2019-01-04T05:58:59.272Z,83.83
2019-01-04T06:01:26.689Z,84.03
2019-01-04T06:03:54.132Z,71.00
2019-01-04T06:06:21.532Z,79.63
2019-01-04T06:08:48.970Z,60.10
2019-01-04T06:11:16.378Z,85.37
2019-01-04T06:13:43.794Z,80.40
2019-01-04T06:16:11.226Z,83.83
2019-01-04T06:18:38.637Z,80.77
2019-01-04T06:21:06.071Z,85.65
2019-01-04T06:23:33.483Z,66.90
2019-01-04T06:26:00.920Z,77.73
2019-01-04T06:28:28.332Z,55.07
2019-01-04T06:30:55.772Z,61.77
2019-01-04T06:33:23.228Z,82.03
2019-01-04T06:35:50.674Z,88.30
2019-01-04T06:38:18.112Z,89.07
2019-01-04T06:40:45.516Z,101.43
2019-01-04T06:43:12.944Z,92.03
2019-01-04T06:45:40.390Z,88.60
2019-01-04T06:48:07.816Z,87.30
2019-01-04T06:50:35.216Z,81.50
2019-01-04T06:53:02.649Z,81.87
2019-01-04T06:55:48.693Z,92.27
2019-01-04T06:58:16.131Z,94.93
2019-01-04T07:00:43.561Z,82.73
2019-01-04T07:03:11.001Z,87.67
2019-01-04T07:05:38.415Z,85.57
2019-01-04T07:08:05.849Z,75.57
2019-01-04T07:10:33.254Z,92.40
2019-01-04T07:13:00.694Z,91.60
2019-01-04T07:15:28.097Z,96.37
2019-01-04T07:17:55.514Z,98.53
2019-01-04T07:20:23.014Z,97.23
2019-01-04T07:22:50.459Z,109.87
2019-01-04T07:25:17.846Z,106.73
2019-01-04T07:27:45.289Z,109.30
2019-01-04T07:30:12.743Z,101.53
2019-01-04T07:32:40.165Z,135.47
2019-01-04T07:35:07.606Z,109.20
2019-01-04T07:37:35.015Z,100.40
2019-01-04T07:40:02.455Z,120.23
2019-01-04T07:42:29.884Z,84.50
2019-01-04T07:44:57.310Z,79.77
2019-01-04T07:47:24.733Z,109.57
2019-01-04T07:49:52.181Z,122.10
2019-01-04T07:52:19.597Z,124.70
2019-01-04T07:54:46.999Z,122.50
2019-01-04T07:57:14.447Z,107.73
2019-01-04T07:59:41.864Z,103.20
2019-01-04T08:02:43.241Z,102.40
2019-01-04T08:05:10.677Z,79.17
2019-01-04T08:07:38.110Z,109.43
2019-01-04T08:10:05.526Z,82.80
2019-01-04T08:12:33.008Z,90.30
2019-01-04T08:15:00.412Z,82.57
2019-01-04T08:17:27.846Z,101.27
2019-01-04T08:19:55.264Z,99.00
2019-01-04T08:22:22.699Z,93.77
2019-01-04T08:24:50.139Z,84.30
2019-01-04T08:27:17.544Z,76.17
2019-01-04T08:29:44.942Z,111.27
2019-01-04T08:32:12.387Z,72.13
2019-01-04T08:34:39.791Z,94.80
2019-01-04T08:37:07.236Z,94.47
2019-01-04T08:39:34.652Z,96.30
2019-01-04T08:42:02.101Z,59.43
2019-01-04T08:44:29.525Z,55.37
2019-01-04T08:46:56.934Z,63.90
2019-01-04T08:49:24.370Z,61.27
2019-01-04T08:51:51.776Z,98.00
2019-01-04T08:54:19.221Z,67.07
2019-01-04T08:56:46.632Z,84.07
2019-01-04T08:59:14.042Z,74.37
2019-01-04T09:01:41.470Z,62.40
2019-01-04T09:04:08.923Z,64.63
2019-01-04T09:06:36.348Z,58.73
2019-01-04T09:09:03.760Z,57.30
2019-01-04T09:11:31.197Z,49.70
2019-01-04T09:13:58.601Z,67.40
2019-01-04T09:16:26.022Z,48.80
2019-01-04T09:18:53.439Z,52.27
2019-01-04T09:21:20.839Z,65.63
2019-01-04T09:23:48.271Z,65.67
2019-01-04T09:26:15.670Z,46.87
2019-01-04T09:28:43.105Z,50.50
2019-01-04T09:31:10.514Z,59.77
2019-01-04T09:33:37.955Z,59.57
2019-01-04T09:36:05.364Z,67.57
2019-01-04T09:38:32.817Z,45.50
2019-01-04T09:41:18.567Z,54.37
2019-01-04T09:43:45.972Z,41.47
2019-01-04T09:46:13.406Z,48.80
2019-01-04T09:48:40.830Z,44.20
2019-01-04T09:51:08.263Z,36.40
2019-01-04T09:53:35.690Z,47.00
2019-01-04T09:56:03.142Z,39.63
2019-01-04T09:58:30.588Z,40.70
2019-01-04T10:00:58.013Z,36.60
2019-01-04T10:03:25.464Z,34.17
2019-01-04T10:05:52.898Z,33.20
2019-01-04T10:08:20.327Z,31.67
2019-01-04T10:10:47.725Z,44.27
2019-01-04T10:13:15.158Z,35.93
2019-01-04T10:15:42.589Z,42.80
2019-01-04T10:18:10.006Z,44.70
2019-01-04T10:20:37.461Z,35.87
2019-01-04T10:23:04.910Z,43.57
2019-01-04T10:25:32.404Z,43.17
2019-01-04T10:27:59.843Z,44.10
2019-01-04T10:30:27.329Z,41.27
2019-01-04T10:32:54.682Z,38.50
2019-01-04T10:35:22.146Z,44.23
2019-01-04T10:37:49.582Z,49.13
2019-01-04T10:40:16.979Z,46.43
2019-01-04T10:42:44.409Z,51.90
2019-01-04T10:45:11.846Z,48.03
2019-01-04T10:47:39.264Z,49.77
2019-01-04T10:50:06.690Z,42.97
2019-01-04T10:52:34.100Z,43.33
2019-01-04T10:55:01.533Z,44.53
2019-01-04T10:57:28.929Z,43.73
2019-01-04T10:59:56.371Z,47.10
2019-01-04T11:02:23.887Z,46.37
2019-01-04T11:04:51.320Z,46.80
2019-01-04T11:07:18.750Z,44.10
2019-01-04T11:09:46.158Z,47.83
2019-01-04T11:12:13.640Z,47.90
2019-01-04T11:14:41.069Z,47.97
2019-01-04T11:17:08.491Z,50.50
2019-01-04T11:19:35.909Z,52.13
2019-01-04T11:22:40.498Z,45.97
2019-01-04T11:25:16.445Z,48.97
2019-01-04T11:27:43.845Z,48.43
2019-01-04T11:30:11.307Z,45.63
2019-01-04T11:32:38.739Z,43.83
2019-01-04T11:35:33.037Z,47.40
2019-01-04T11:38:03.006Z,40.57
2019-01-04T11:40:54.432Z,42.83
2019-01-04T11:43:36.404Z,42.53
2019-01-04T11:46:18.829Z,43.00
2019-01-04T11:48:49.060Z,43.77
2019-01-04T11:51:21.922Z,42.93
2019-01-04T11:53:49.359Z,48.07
2019-01-04T11:56:16.759Z,45.60
2019-01-04T11:58:44.199Z,42.83
2019-01-04T12:01:11.626Z,37.53
2019-01-04T12:03:39.095Z,39.53
2019-01-04T12:06:06.507Z,45.57
2019-01-04T12:08:33.929Z,39.77
2019-01-04T12:11:01.358Z,39.28
2019-01-04T12:13:28.794Z,39.27
2019-01-04T12:15:56.197Z,38.27
2019-01-04T12:18:23.617Z,40.77
2019-01-04T12:20:51.021Z,34.60
2019-01-04T12:23:18.458Z,38.80
2019-01-04T12:25:45.880Z,37.67
2019-01-04T12:28:13.300Z,39.23
2019-01-04T12:30:40.756Z,34.90
2019-01-04T12:33:08.171Z,36.40
2019-01-04T12:35:35.681Z,34.07
2019-01-04T12:38:03.111Z,39.23
2019-01-04T12:40:30.529Z,39.27
2019-01-04T12:42:57.953Z,42.53
2019-01-04T12:45:25.386Z,39.17
2019-01-04T12:47:52.812Z,40.27
2019-01-04T12:50:20.245Z,42.10
2019-01-04T12:52:47.680Z,43.53
2019-01-04T12:55:15.074Z,43.20
2019-01-04T12:57:42.509Z,39.70
2019-01-04T13:00:09.915Z,41.87
2019-01-04T13:02:37.358Z,47.03
2019-01-04T13:05:04.759Z,54.50
2019-01-04T13:07:32.203Z,42.13
2019-01-04T13:09:59.599Z,51.03
2019-01-04T13:12:27.027Z,46.07
2019-01-04T13:14:54.435Z,47.17
2019-01-04T13:17:21.873Z,51.23
2019-01-04T13:19:49.337Z,51.93
2019-01-04T13:22:16.754Z,52.50
2019-01-04T13:24:44.191Z,54.90
2019-01-04T13:27:11.603Z,54.43
2019-01-04T13:29:39.072Z,49.90
2019-01-04T13:32:06.467Z,59.10
2019-01-04T13:34:33.906Z,59.57
2019-01-04T13:37:01.307Z,64.67
2019-01-04T13:39:28.759Z,67.07
2019-01-04T13:41:56.221Z,68.77
2019-01-04T13:44:23.623Z,67.17
2019-01-04T13:46:51.049Z,70.17
2019-01-04T13:49:18.440Z,67.53
2019-01-04T13:51:45.897Z,65.07
2019-01-04T13:54:13.295Z,73.53
2019-01-04T13:56:40.754Z,68.87
2019-01-04T13:59:08.160Z,66.47
2019-01-04T14:01:35.585Z,64.87
2019-01-04T14:04:03.015Z,67.37
2019-01-04T14:06:30.430Z,63.73
2019-01-04T14:08:57.845Z,60.90
2019-01-04T14:11:25.276Z,63.73
2019-01-04T14:13:52.702Z,62.27
2019-01-04T14:16:20.123Z,57.73
2019-01-04T14:18:47.552Z,52.70
2019-01-04T14:21:14.946Z,58.17
2019-01-04T14:23:42.359Z,54.17
2019-01-04T14:26:09.794Z,55.77
2019-01-04T14:28:37.228Z,49.07
2019-01-04T14:31:04.658Z,48.60
2019-01-04T14:33:32.080Z,53.00
2019-01-04T14:35:59.529Z,47.63
2019-01-04T14:38:26.959Z,51.40
2019-01-04T14:40:54.372Z,53.03
2019-01-04T14:43:21.789Z,48.40
2019-01-04T14:45:49.187Z,60.80
2019-01-04T14:48:16.610Z,46.70
2019-01-04T14:50:44.009Z,51.67
2019-01-04T14:53:11.457Z,48.27
2019-01-04T14:55:38.861Z,52.67
2019-01-04T14:58:06.296Z,52.07
2019-01-04T15:00:33.690Z,51.57
2019-01-04T15:03:01.119Z,50.23
2019-01-04T15:05:28.520Z,53.70
2019-01-04T15:07:55.941Z,53.70
2019-01-04T15:10:23.344Z,51.37
2019-01-04T15:12:50.766Z,55.57
2019-01-04T15:15:18.169Z,53.43
2019-01-04T15:17:45.605Z,58.63
2019-01-04T15:20:13.012Z,60.03
2019-01-04T15:22:40.432Z,59.53
2019-01-04T15:25:07.832Z,56.87
2019-01-04T15:27:35.277Z,57.00
2019-01-04T15:30:02.703Z,58.90
2019-01-04T15:32:30.131Z,54.33
2019-01-04T15:34:57.572Z,49.50
2019-01-04T15:37:25.021Z,55.83
2019-01-04T15:39:52.424Z,56.40
2019-01-04T15:42:19.840Z,53.63
2019-01-04T15:44:47.267Z,48.20
2019-01-04T15:47:14.719Z,49.13
2019-01-04T15:49:42.147Z,48.53
2019-01-04T15:52:09.560Z,46.10
2019-01-04T15:54:37.009Z,48.87
2019-01-04T15:57:04.516Z,46.13
2019-01-04T15:59:31.941Z,46.30
2019-01-04T16:01:59.353Z,44.67
2019-01-04T16:04:26.782Z,51.57
2019-01-04T16:06:54.184Z,45.77
2019-01-04T16:09:21.605Z,50.97
2019-01-04T16:11:49.047Z,49.10
2019-01-04T16:14:16.448Z,51.10
2019-01-04T16:16:43.890Z,45.60
2019-01-04T16:19:11.323Z,50.57
2019-01-04T16:21:38.765Z,47.77
2019-01-04T16:24:06.175Z,49.20
2019-01-04T16:26:33.620Z,50.87
2019-01-04T16:29:01.049Z,49.07
2019-01-04T16:31:28.450Z,52.63
2019-01-04T16:33:55.871Z,59.27
2019-01-04T16:36:23.291Z,55.50
2019-01-04T16:38:50.739Z,56.67
2019-01-04T16:41:18.169Z,53.93
2019-01-04T16:43:45.585Z,53.63
2019-01-04T16:46:13.034Z,57.00
2019-01-04T16:48:40.443Z,50.87
2019-01-04T16:51:07.906Z,52.43
2019-01-04T16:53:35.314Z,55.60
2019-01-04T16:56:02.754Z,51.87
2019-01-04T16:58:30.208Z,59.83
2019-01-04T17:00:57.633Z,62.03
2019-01-04T17:03:25.054Z,58.83
2019-01-04T17:05:52.488Z,66.60
2019-01-04T17:08:19.922Z,60.63
2019-01-04T17:10:47.324Z,54.57
2019-01-04T17:13:14.770Z,62.43
2019-01-04T17:15:42.197Z,57.90
2019-01-04T17:18:09.683Z,55.20
2019-01-04T17:20:37.084Z,56.10
2019-01-04T17:23:04.508Z,57.30
2019-01-04T17:25:31.936Z,56.00
2019-01-04T17:27:59.360Z,54.80
2019-01-04T17:30:26.821Z,59.07
2019-01-04T17:32:54.235Z,62.17
2019-01-04T17:35:21.708Z,59.10
2019-01-04T17:37:49.114Z,63.57
2019-01-04T17:40:16.550Z,69.87
2019-01-04T17:42:43.959Z,74.57
2019-01-04T17:45:14.305Z,67.57
2019-01-04T17:47:41.710Z,71.97
2019-01-04T17:50:09.124Z,73.20
2019-01-04T17:52:36.562Z,71.83
2019-01-04T17:55:03.997Z,73.97
2019-01-04T17:57:31.435Z,77.40
2019-01-04T17:59:58.872Z,69.20
2019-01-04T18:02:26.282Z,78.30
2019-01-04T18:04:53.702Z,87.23
2019-01-04T18:07:21.162Z,81.27
2019-01-04T18:09:48.576Z,81.57
2019-01-04T18:12:15.985Z,84.77
2019-01-04T18:14:43.419Z,94.97
2019-01-04T18:17:10.883Z,90.20
2019-01-04T18:19:38.319Z,95.60
2019-01-04T18:22:05.795Z,89.60
2019-01-04T18:24:33.211Z,93.40
2019-01-04T18:27:00.626Z,92.70
2019-01-04T18:29:28.122Z,97.53
2019-01-04T18:31:55.523Z,93.20
2019-01-04T18:34:22.983Z,91.27
2019-01-04T18:36:50.410Z,104.13
2019-01-04T18:39:17.808Z,94.23
2019-01-04T18:41:45.250Z,103.47
2019-01-04T18:44:12.668Z,89.67
2019-01-04T18:46:40.109Z,93.63
2019-01-04T18:49:07.556Z,107.07
2019-01-04T18:51:34.979Z,101.73
2019-01-04T18:54:02.419Z,102.83
2019-01-04T18:56:29.868Z,110.53
2019-01-04T18:58:57.283Z,99.77
2019-01-04T19:01:24.705Z,110.53
2019-01-04T19:03:52.151Z,117.37
2019-01-04T19:06:19.573Z,103.80
2019-01-04T19:08:47.072Z,112.23
2019-01-04T19:11:14.486Z,112.90
2019-01-04T19:13:41.931Z,108.17
2019-01-04T19:16:12.064Z,110.07
2019-01-04T19:18:39.510Z,110.43
2019-01-04T19:21:06.922Z,120.37
2019-01-04T19:23:39.511Z,112.90
2019-01-04T19:26:01.801Z,106.60
2019-01-04T19:28:29.212Z,114.53
2019-01-04T19:30:56.646Z,110.87
2019-01-04T19:33:24.066Z,111.03
2019-01-04T19:35:51.514Z,108.70
2019-01-04T19:38:18.954Z,114.60
2019-01-04T19:40:46.377Z,110.23
2019-01-04T19:43:13.859Z,101.33
2019-01-04T19:45:41.277Z,102.63
2019-01-04T19:48:08.754Z,124.20
2019-01-04T19:50:36.174Z,109.27
2019-01-04T19:53:03.625Z,104.33
2019-01-04T19:55:31.065Z,111.87
2019-01-04T19:57:58.505Z,111.93
2019-01-04T20:00:25.953Z,111.77
2019-01-04T20:02:53.395Z,111.43
2019-01-04T20:05:35.966Z,123.97
2019-01-04T20:08:43.162Z,111.77
2019-01-04T20:11:47.190Z,106.90
2019-01-04T20:14:38.948Z,115.07
2019-01-04T20:17:06.381Z,104.87
2019-01-04T20:19:42.870Z,108.93
2019-01-04T20:22:25.733Z,107.33
2019-01-04T20:24:55.932Z,104.53
2019-01-04T20:27:29.326Z,108.30
2019-01-04T20:30:05.897Z,111.90
2019-01-04T20:32:42.301Z,123.70
2019-01-04T20:35:18.748Z,116.57
2019-01-04T20:37:46.158Z,107.87
2019-01-04T20:40:19.404Z,116.57
2019-01-04T20:42:46.852Z,99.23
2019-01-04T20:45:26.312Z,111.30
2019-01-04T20:47:59.262Z,104.17
2019-01-04T20:50:44.596Z,101.47
2019-01-04T20:53:12.016Z,107.50
2019-01-04T20:55:57.723Z,101.93
2019-01-04T20:58:34.134Z,113.40
2019-01-04T21:01:04.459Z,101.27
2019-01-04T21:03:34.545Z,103.53
2019-01-04T21:06:10.813Z,103.37
2019-01-04T21:08:44.015Z,94.40
2019-01-04T21:11:11.502Z,98.47
2019-01-04T21:13:56.955Z,106.03
2019-01-04T21:16:42.622Z,103.33
2019-01-04T21:19:12.805Z,98.67
2019-01-04T21:21:55.338Z,88.70
2019-01-04T21:24:34.971Z,102.10
2019-01-04T21:27:02.383Z,104.33
2019-01-04T21:29:29.814Z,95.67
2019-01-04T21:32:09.346Z,102.60
2019-01-04T21:34:42.761Z,104.10
2019-01-04T21:37:28.663Z,106.00
2019-01-04T21:39:58.608Z,89.13
2019-01-04T21:42:28.729Z,111.03
2019-01-04T21:44:56.203Z,102.80
2019-01-04T21:47:41.967Z,109.00
2019-01-04T21:50:21.339Z,115.13
2019-01-04T21:53:00.782Z,112.10
2019-01-04T21:55:30.733Z,127.23
2019-01-04T21:58:03.947Z,112.10
2019-01-04T22:00:49.656Z,116.83
2019-01-04T22:03:17.076Z,116.20
2019-01-04T22:05:50.412Z,110.73
2019-01-04T22:08:36.163Z,109.17
2019-01-04T22:11:22.095Z,117.60
2019-01-04T22:13:55.384Z,123.57
2019-01-04T22:16:38.086Z,121.43
2019-01-04T22:19:14.493Z,110.67
2019-01-04T22:21:54.070Z,129.20
2019-01-04T22:24:36.518Z,126.47
2019-01-04T22:27:22.008Z,131.03
2019-01-04T22:29:52.440Z,126.33
2019-01-04T22:32:19.857Z,120.10
2019-01-04T22:34:56.098Z,128.40
2019-01-04T22:37:35.349Z,118.67
2019-01-04T22:40:20.751Z,114.97
2019-01-04T22:42:48.172Z,134.90
2019-01-04T22:45:21.284Z,135.47
2019-01-04T22:47:54.257Z,138.63
2019-01-04T22:50:30.685Z,132.47
2019-01-04T22:53:01.296Z,129.40
2019-01-04T22:55:34.723Z,144.83
2019-01-04T22:58:17.340Z,124.20
2019-01-04T23:00:44.807Z,147.33
2019-01-04T23:03:30.239Z,134.53
2019-01-04T23:05:57.700Z,132.87
2019-01-04T23:08:34.155Z,120.90
2019-01-04T23:11:10.521Z,134.00
2019-01-04T23:13:37.957Z,131.17
2019-01-04T23:16:14.423Z,135.87
2019-01-04T23:18:44.366Z,141.63
2019-01-04T23:21:57.526Z,130.57
2019-01-04T23:24:27.583Z,131.07
2019-01-04T23:27:00.981Z,127.03
2019-01-04T23:29:28.396Z,133.53
2019-01-04T23:32:01.525Z,144.13
2019-01-04T23:34:47.311Z,139.70
2019-01-04T23:37:14.736Z,145.73
2019-01-04T23:39:42.162Z,133.73
2019-01-04T23:42:12.608Z,144.67
2019-01-04T23:44:54.912Z,132.97
2019-01-04T23:47:25.153Z,152.70
2019-01-04T23:50:04.411Z,143.87
2019-01-04T23:52:43.940Z,141.60
2019-01-04T23:55:23.469Z,139.53
2019-01-04T23:58:08.969Z,144.67
